LFKBLFKC

Guest
Details From LFKB - Poretta
To LFKC - St Catherine
Flight Number -
Tags Routegen Generated
Created
Modified
Stats Distance 41 nm / 76 km
Max Altitude 100 ft / 30 m
Waypoints 5
Social Downloads 5
Likes 0
Share VATSIM

Download

Looking for another format? Having issues loading an existing format? Contact us
Advertisement - Login to hide

Notes

Departing runway 16 LFKB. Arriving runway 17 LFKC.

Route

LFKB +42.47_+009.52 +42.46_+009.16 +42.45_+008.79 LFKC

ID Type Via Altitude Latitude Longitude Leg Dist Tot Dist Heading (true) Name
O LFKB APT - 0 ft / 0 m 42.54168˚ 9.48825˚ - 0 nm - -
+42.47_+009.52 LATLON - 100 ft / 30 m 42.47253˚ 9.51720˚ 4 nm 4 nm 163° / 163° -
+42.46_+009.16 LATLON - 100 ft / 30 m 42.46026˚ 9.15545˚ 16 nm 20 nm 267° / 267° -
+42.45_+008.79 LATLON - 100 ft / 30 m 42.44799˚ 8.79370˚ 16 nm 36 nm 267° / 267° -
O LFKC APT - 0 ft / 0 m 42.52035˚ 8.79302˚ 4 nm 40 nm 360° / 360° -

Altitude Profile

Advertisement - Login to hide

LFKB

Details ICAO LFKB (BIA)
Name Bastia Poretta
Region France
Timezone Europe/Paris (UTC+2.0)
Stats Elevation 25 ft / 8 m (AMSL)
Location 42.552508° 9.483709°
Runways 1
Magnetic Variation 2.533° E

METAR

LFKB 251900Z AUTO 08002KT 9999 4000 NSC 20/18 Q1016 NOSIG

Decode

TAF

TAF LFKB 251400Z 2515/2615 06008KT 9999 FEW025 BECMG 2518/2520 22006KT PROB40 TEMPO 2600/2607 BKN008 TX26/2612Z TN14/2604Z

Decode

Departure Runways

ID Width Length Bearing (true) Bearing (mag) Surface Threshold Offset Overrun Length
16 148 ft / 45 m 8,273 ft / 2,522 m 162.83° 160.30° Concrete 0 ft / 0 m 131 ft / 40 m
34 148 ft / 45 m 8,273 ft / 2,522 m 342.84° 340.31° Concrete 0 ft / 0 m 0 ft / 0 m

LFKC

Details ICAO LFKC (CLY)
Name St Catherine
Region France
Timezone Europe/Paris (UTC+2.0)
Stats Elevation 208 ft / 63 m (AMSL)
Location 42.530762° 8.792925°
Runways 1
Magnetic Variation 2.390° E

METAR

LFKC 251900Z AUTO VRB03KT CAVOK 19/16 Q1016 NOSIG

Decode

TAF

TAF LFKC 251400Z 2515/2615 36010KT 9999 FEW035 BECMG 2518/2520 18006KT BECMG 2608/2610 36010KT TX23/2612Z TN14/2604Z

Decode

Destination Runways

ID Width Length Bearing (true) Bearing (mag) Surface Threshold Offset Overrun Length
18 131 ft / 40 m 7,596 ft / 2,315 m 179.60° 177.21° Concrete 0 ft / 0 m 0 ft / 0 m
36 131 ft / 40 m 7,596 ft / 2,315 m 359.60° 357.21° Concrete 656 ft / 200 m 0 ft / 0 m

Approach Navaids

Runway Type Ident Frequency Range Bearing (true) Bearing (mag) Slope Elevation
18 Localiser CLI 109.50 MHz 18 nm / 33 km 179.62° 177.23° - 230 ft / 70 m (AMSL)
18 DME CLI 109.50 MHz 18 nm / 33 km - - - 230 ft / 70 m (AMSL)

Popular Alternatives